sensor_id;sensor_type;location;lat;lon;timestamp;temperature;humidity
29729;DHT22;20055;51.498;11.960;2023-07-09T00:02:17;22.30;80.10
29729;DHT22;20055;51.498;11.960;2023-07-09T00:04:44;22.30;80.70
29729;DHT22;20055;51.498;11.960;2023-07-09T00:07:27;22.20;81.20
29729;DHT22;20055;51.498;11.960;2023-07-09T00:09:54;22.10;82.80
29729;DHT22;20055;51.498;11.960;2023-07-09T00:12:21;22.10;84.20
29729;DHT22;20055;51.498;11.960;2023-07-09T00:14:47;21.90;87.30
29729;DHT22;20055;51.498;11.960;2023-07-09T00:17:31;21.70;88.80
29729;DHT22;20055;51.498;11.960;2023-07-09T00:19:59;21.60;90.60
29729;DHT22;20055;51.498;11.960;2023-07-09T00:22:26;21.40;91.50
29729;DHT22;20055;51.498;11.960;2023-07-09T00:24:57;21.30;92.10
29729;DHT22;20055;51.498;11.960;2023-07-09T00:27:27;21.30;92.60
29729;DHT22;20055;51.498;11.960;2023-07-09T00:29:54;21.20;92.70
29729;DHT22;20055;51.498;11.960;2023-07-09T00:32:20;21.20;93.50
29729;DHT22;20055;51.498;11.960;2023-07-09T00:34:48;21.20;93.40
29729;DHT22;20055;51.498;11.960;2023-07-09T00:37:16;21.10;93.90
29729;DHT22;20055;51.498;11.960;2023-07-09T00:39:49;21.10;94.20
29729;DHT22;20055;51.498;11.960;2023-07-09T00:42:20;21.00;94.50
29729;DHT22;20055;51.498;11.960;2023-07-09T00:44:52;21.10;94.50
29729;DHT22;20055;51.498;11.960;2023-07-09T00:47:25;21.10;94.40
29729;DHT22;20055;51.498;11.960;2023-07-09T00:50:42;21.10;94.50
29729;DHT22;20055;51.498;11.960;2023-07-09T00:52:59;21.00;95.00
29729;DHT22;20055;51.498;11.960;2023-07-09T00:55:32;20.80;96.20
29729;DHT22;20055;51.498;11.960;2023-07-09T00:58:01;20.60;97.40
29729;DHT22;20055;51.498;11.960;2023-07-09T01:00:37;20.60;98.40
29729;DHT22;20055;51.498;11.960;2023-07-09T01:06:38;20.50;99.70
29729;DHT22;20055;51.498;11.960;2023-07-09T01:09:06;20.30;99.90
29729;DHT22;20055;51.498;11.960;2023-07-09T01:11:33;20.30;99.90
29729;DHT22;20055;51.498;11.960;2023-07-09T01:14:04;20.20;99.90
29729;DHT22;20055;51.498;11.960;2023-07-09T01:16:39;20.20;99.90
29729;DHT22;20055;51.498;11.960;2023-07-09T01:19:06;20.20;99.90
29729;DHT22;20055;51.498;11.960;2023-07-09T01:21:33;20.00;99.90
29729;DHT22;20055;51.498;11.960;2023-07-09T01:24:14;19.90;99.90
29729;DHT22;20055;51.498;11.960;2023-07-09T01:26:41;19.70;99.90
29729;DHT22;20055;51.498;11.960;2023-07-09T01:29:09;19.60;99.90
29729;DHT22;20055;51.498;11.960;2023-07-09T01:31:37;19.60;99.90
29729;DHT22;20055;51.498;11.960;2023-07-09T01:34:03;19.60;99.90
29729;DHT22;20055;51.498;11.960;2023-07-09T01:36:31;19.60;99.90
29729;DHT22;20055;51.498;11.960;2023-07-09T01:38:57;19.60;99.90
29729;DHT22;20055;51.498;11.960;2023-07-09T01:41:24;19.60;99.90
29729;DHT22;20055;51.498;11.960;2023-07-09T01:43:51;19.60;99.90
29729;DHT22;20055;51.498;11.960;2023-07-09T01:46:19;19.60;99.90
29729;DHT22;20055;51.498;11.960;2023-07-09T01:48:45;19.60;99.90
29729;DHT22;20055;51.498;11.960;2023-07-09T01:51:14;19.40;99.90
29729;DHT22;20055;51.498;11.960;2023-07-09T01:53:43;19.40;99.90
29729;DHT22;20055;51.498;11.960;2023-07-09T01:56:12;19.40;99.90
29729;DHT22;20055;51.498;11.960;2023-07-09T01:58:39;19.40;99.90
29729;DHT22;20055;51.498;11.960;2023-07-09T02:01:09;19.40;99.90
29729;DHT22;20055;51.498;11.960;2023-07-09T02:03:35;19.30;99.90
29729;DHT22;20055;51.498;11.960;2023-07-09T02:06:02;19.30;99.90
29729;DHT22;20055;51.498;11.960;2023-07-09T02:08:35;19.20;99.90
29729;DHT22;20055;51.498;11.960;2023-07-09T02:11:02;19.20;99.90
29729;DHT22;20055;51.498;11.960;2023-07-09T02:13:29;19.20;99.90
29729;DHT22;20055;51.498;11.960;2023-07-09T02:15:55;19.20;99.90
29729;DHT22;20055;51.498;11.960;2023-07-09T02:18:21;19.10;99.90
29729;DHT22;20055;51.498;11.960;2023-07-09T02:20:47;19.00;99.90
29729;DHT22;20055;51.498;11.960;2023-07-09T02:23:14;19.00;99.90
29729;DHT22;20055;51.498;11.960;2023-07-09T02:25:40;19.00;99.90
29729;DHT22;20055;51.498;11.960;2023-07-09T02:28:06;18.90;99.90
29729;DHT22;20055;51.498;11.960;2023-07-09T02:30:32;18.90;99.90
29729;DHT22;20055;51.498;11.960;2023-07-09T02:32:59;18.80;99.90
29729;DHT22;20055;51.498;11.960;2023-07-09T02:35:25;18.70;99.90
29729;DHT22;20055;51.498;11.960;2023-07-09T02:37:51;18.70;99.90
29729;DHT22;20055;51.498;11.960;2023-07-09T02:40:17;18.70;99.90
29729;DHT22;20055;51.498;11.960;2023-07-09T02:42:44;18.70;99.90
29729;DHT22;20055;51.498;11.960;2023-07-09T02:45:10;18.60;99.90
29729;DHT22;20055;51.498;11.960;2023-07-09T02:47:37;18.70;99.90
29729;DHT22;20055;51.498;11.960;2023-07-09T02:50:04;18.60;99.90
29729;DHT22;20055;51.498;11.960;2023-07-09T02:52:31;18.60;99.90
29729;DHT22;20055;51.498;11.960;2023-07-09T02:54:57;18.60;99.90
29729;DHT22;20055;51.498;11.960;2023-07-09T02:57:23;18.50;99.90
29729;DHT22;20055;51.498;11.960;2023-07-09T02:59:50;18.50;99.90
29729;DHT22;20055;51.498;11.960;2023-07-09T03:02:16;18.50;99.90
29729;DHT22;20055;51.498;11.960;2023-07-09T03:04:42;18.50;99.90
29729;DHT22;20055;51.498;11.960;2023-07-09T03:07:08;18.50;99.90
29729;DHT22;20055;51.498;11.960;2023-07-09T03:09:35;18.50;99.90
29729;DHT22;20055;51.498;11.960;2023-07-09T03:12:02;18.40;99.90
29729;DHT22;20055;51.498;11.960;2023-07-09T03:14:28;18.30;99.90
29729;DHT22;20055;51.498;11.960;2023-07-09T03:16:54;18.30;99.90
29729;DHT22;20055;51.498;11.960;2023-07-09T03:19:21;18.40;99.90
29729;DHT22;20055;51.498;11.960;2023-07-09T03:21:48;18.40;99.90
29729;DHT22;20055;51.498;11.960;2023-07-09T03:24:14;18.40;99.90
29729;DHT22;20055;51.498;11.960;2023-07-09T03:26:48;18.40;99.90
29729;DHT22;20055;51.498;11.960;2023-07-09T03:29:14;18.50;99.90
29729;DHT22;20055;51.498;11.960;2023-07-09T03:31:40;18.50;99.90
29729;DHT22;20055;51.498;11.960;2023-07-09T03:34:07;18.60;99.90
29729;DHT22;20055;51.498;11.960;2023-07-09T03:36:33;18.70;99.90
29729;DHT22;20055;51.498;11.960;2023-07-09T03:38:59;18.80;99.90
29729;DHT22;20055;51.498;11.960;2023-07-09T03:41:25;18.80;99.90
29729;DHT22;20055;51.498;11.960;2023-07-09T03:43:52;18.90;99.90
29729;DHT22;20055;51.498;11.960;2023-07-09T03:46:19;19.00;99.90
29729;DHT22;20055;51.498;11.960;2023-07-09T03:48:45;19.00;99.90
29729;DHT22;20055;51.498;11.960;2023-07-09T03:51:12;19.10;99.90
29729;DHT22;20055;51.498;11.960;2023-07-09T03:53:38;19.20;99.90
29729;DHT22;20055;51.498;11.960;2023-07-09T03:56:04;19.30;99.90
29729;DHT22;20055;51.498;11.960;2023-07-09T03:58:30;19.50;99.90
29729;DHT22;20055;51.498;11.960;2023-07-09T04:00:56;19.50;99.90
29729;DHT22;20055;51.498;11.960;2023-07-09T04:03:23;19.60;99.90
29729;DHT22;20055;51.498;11.960;2023-07-09T04:05:50;19.60;99.90
29729;DHT22;20055;51.498;11.960;2023-07-09T04:08:17;19.60;99.90
29729;DHT22;20055;51.498;11.960;2023-07-09T04:10:44;19.80;99.90
29729;DHT22;20055;51.498;11.960;2023-07-09T04:13:10;20.10;99.90
29729;DHT22;20055;51.498;11.960;2023-07-09T04:15:37;20.30;99.90
29729;DHT22;20055;51.498;11.960;2023-07-09T04:18:03;20.20;99.90
29729;DHT22;20055;51.498;11.960;2023-07-09T04:20:29;20.20;99.90
29729;DHT22;20055;51.498;11.960;2023-07-09T04:22:56;20.20;99.90
29729;DHT22;20055;51.498;11.960;2023-07-09T04:25:22;20.20;99.90
29729;DHT22;20055;51.498;11.960;2023-07-09T04:27:48;20.30;99.90
29729;DHT22;20055;51.498;11.960;2023-07-09T04:30:16;20.50;99.90
29729;DHT22;20055;51.498;11.960;2023-07-09T04:32:43;21.60;99.90
29729;DHT22;20055;51.498;11.960;2023-07-09T04:35:10;22.60;99.90
29729;DHT22;20055;51.498;11.960;2023-07-09T04:37:38;23.30;98.70
29729;DHT22;20055;51.498;11.960;2023-07-09T04:40:05;24.60;96.90
29729;DHT22;20055;51.498;11.960;2023-07-09T04:42:32;26.00;94.30
29729;DHT22;20055;51.498;11.960;2023-07-09T04:44:59;27.00;91.50
29729;DHT22;20055;51.498;11.960;2023-07-09T04:47:25;26.90;90.20
29729;DHT22;20055;51.498;11.960;2023-07-09T04:49:51;27.50;87.80
29729;DHT22;20055;51.498;11.960;2023-07-09T04:52:17;28.00;84.20
29729;DHT22;20055;51.498;11.960;2023-07-09T04:54:43;29.20;80.00
29729;DHT22;20055;51.498;11.960;2023-07-09T04:57:11;29.40;77.00
29729;DHT22;20055;51.498;11.960;2023-07-09T04:59:37;30.00;73.20
29729;DHT22;20055;51.498;11.960;2023-07-09T05:02:04;30.60;71.00
29729;DHT22;20055;51.498;11.960;2023-07-09T05:04:31;31.10;69.40
29729;DHT22;20055;51.498;11.960;2023-07-09T05:06:58;30.20;69.20
29729;DHT22;20055;51.498;11.960;2023-07-09T05:09:24;29.90;69.20
29729;DHT22;20055;51.498;11.960;2023-07-09T05:11:50;29.90;70.30
29729;DHT22;20055;51.498;11.960;2023-07-09T05:14:18;31.10;66.50
29729;DHT22;20055;51.498;11.960;2023-07-09T05:16:44;29.90;68.10
29729;DHT22;20055;51.498;11.960;2023-07-09T05:19:11;29.60;69.50
29729;DHT22;20055;51.498;11.960;2023-07-09T05:21:38;30.30;67.70
29729;DHT22;20055;51.498;11.960;2023-07-09T05:24:04;30.70;66.20
29729;DHT22;20055;51.498;11.960;2023-07-09T05:26:31;30.00;66.30
29729;DHT22;20055;51.498;11.960;2023-07-09T05:28:57;29.20;68.50
29729;DHT22;20055;51.498;11.960;2023-07-09T05:31:23;28.80;69.20
29729;DHT22;20055;51.498;11.960;2023-07-09T05:33:50;28.80;70.80
29729;DHT22;20055;51.498;11.960;2023-07-09T05:36:16;27.60;73.00
29729;DHT22;20055;51.498;11.960;2023-07-09T05:38:43;27.20;75.80
29729;DHT22;20055;51.498;11.960;2023-07-09T05:41:10;26.70;76.70
29729;DHT22;20055;51.498;11.960;2023-07-09T05:43:36;26.20;79.00
29729;DHT22;20055;51.498;11.960;2023-07-09T05:46:04;26.60;79.40
29729;DHT22;20055;51.498;11.960;2023-07-09T05:48:31;26.10;81.00
29729;DHT22;20055;51.498;11.960;2023-07-09T05:50:57;25.70;82.70
29729;DHT22;20055;51.498;11.960;2023-07-09T05:53:24;25.20;84.70
29729;DHT22;20055;51.498;11.960;2023-07-09T05:55:53;24.90;86.80
29729;DHT22;20055;51.498;11.960;2023-07-09T05:58:20;24.70;88.60
29729;DHT22;20055;51.498;11.960;2023-07-09T06:00:50;24.30;90.30
29729;DHT22;20055;51.498;11.960;2023-07-09T06:03:20;24.20;90.90
29729;DHT22;20055;51.498;11.960;2023-07-09T06:05:47;23.70;92.10
29729;DHT22;20055;51.498;11.960;2023-07-09T06:08:16;23.50;93.30
29729;DHT22;20055;51.498;11.960;2023-07-09T06:10:56;23.70;93.50
29729;DHT22;20055;51.498;11.960;2023-07-09T06:13:24;23.80;93.60
29729;DHT22;20055;51.498;11.960;2023-07-09T06:15:51;24.00;93.80
29729;DHT22;20055;51.498;11.960;2023-07-09T06:18:19;23.90;94.30
29729;DHT22;20055;51.498;11.960;2023-07-09T06:20:48;23.70;94.50
29729;DHT22;20055;51.498;11.960;2023-07-09T06:23:15;23.80;94.80
29729;DHT22;20055;51.498;11.960;2023-07-09T06:25:42;23.90;95.00
29729;DHT22;20055;51.498;11.960;2023-07-09T06:28:09;23.90;95.00
29729;DHT22;20055;51.498;11.960;2023-07-09T06:30:36;24.10;95.00
29729;DHT22;20055;51.498;11.960;2023-07-09T06:33:02;24.00;95.10
29729;DHT22;20055;51.498;11.960;2023-07-09T06:35:28;24.00;96.30
29729;DHT22;20055;51.498;11.960;2023-07-09T06:37:55;24.10;96.50
29729;DHT22;20055;51.498;11.960;2023-07-09T06:40:21;24.30;96.30
29729;DHT22;20055;51.498;11.960;2023-07-09T06:42:49;24.40;96.20
29729;DHT22;20055;51.498;11.960;2023-07-09T06:45:24;24.60;95.50
29729;DHT22;20055;51.498;11.960;2023-07-09T06:47:51;24.80;95.10
29729;DHT22;20055;51.498;11.960;2023-07-09T06:50:17;25.00;94.30
29729;DHT22;20055;51.498;11.960;2023-07-09T06:52:43;25.00;94.60
29729;DHT22;20055;51.498;11.960;2023-07-09T06:55:10;25.00;94.10
29729;DHT22;20055;51.498;11.960;2023-07-09T06:57:36;25.20;94.00
29729;DHT22;20055;51.498;11.960;2023-07-09T07:00:03;25.30;93.40
29729;DHT22;20055;51.498;11.960;2023-07-09T07:02:30;25.10;93.70
29729;DHT22;20055;51.498;11.960;2023-07-09T07:04:57;25.20;93.70
29729;DHT22;20055;51.498;11.960;2023-07-09T07:07:23;25.20;93.60
29729;DHT22;20055;51.498;11.960;2023-07-09T07:09:49;25.30;94.00
29729;DHT22;20055;51.498;11.960;2023-07-09T07:12:26;25.40;93.90
29729;DHT22;20055;51.498;11.960;2023-07-09T07:14:53;25.50;93.90
29729;DHT22;20055;51.498;11.960;2023-07-09T07:17:20;25.60;93.50
29729;DHT22;20055;51.498;11.960;2023-07-09T07:19:46;25.60;92.40
29729;DHT22;20055;51.498;11.960;2023-07-09T07:22:12;25.80;92.60
29729;DHT22;20055;51.498;11.960;2023-07-09T07:24:39;25.90;92.60
29729;DHT22;20055;51.498;11.960;2023-07-09T07:27:05;26.00;92.60
29729;DHT22;20055;51.498;11.960;2023-07-09T07:29:31;26.20;92.30
29729;DHT22;20055;51.498;11.960;2023-07-09T07:31:58;26.20;91.80
29729;DHT22;20055;51.498;11.960;2023-07-09T07:34:24;26.10;91.70
29729;DHT22;20055;51.498;11.960;2023-07-09T07:36:50;26.20;91.50
29729;DHT22;20055;51.498;11.960;2023-07-09T07:39:16;26.20;91.40
29729;DHT22;20055;51.498;11.960;2023-07-09T07:41:42;26.40;91.20
29729;DHT22;20055;51.498;11.960;2023-07-09T07:44:09;26.50;91.30
29729;DHT22;20055;51.498;11.960;2023-07-09T07:46:35;26.60;91.10
29729;DHT22;20055;51.498;11.960;2023-07-09T07:49:01;26.70;91.10
29729;DHT22;20055;51.498;11.960;2023-07-09T07:51:27;26.60;91.20
29729;DHT22;20055;51.498;11.960;2023-07-09T07:53:55;26.60;91.30
29729;DHT22;20055;51.498;11.960;2023-07-09T07:56:22;26.70;91.10
29729;DHT22;20055;51.498;11.960;2023-07-09T07:58:48;26.80;91.00
29729;DHT22;20055;51.498;11.960;2023-07-09T08:01:14;26.80;89.50
29729;DHT22;20055;51.498;11.960;2023-07-09T08:03:40;27.00;88.10
29729;DHT22;20055;51.498;11.960;2023-07-09T08:06:07;27.00;87.30
29729;DHT22;20055;51.498;11.960;2023-07-09T08:08:33;27.10;87.00
29729;DHT22;20055;51.498;11.960;2023-07-09T08:11:01;27.20;87.30
29729;DHT22;20055;51.498;11.960;2023-07-09T08:13:37;27.40;86.20
29729;DHT22;20055;51.498;11.960;2023-07-09T08:16:05;27.60;86.50
29729;DHT22;20055;51.498;11.960;2023-07-09T08:18:31;27.90;85.10
29729;DHT22;20055;51.498;11.960;2023-07-09T08:21:02;27.90;85.30
29729;DHT22;20055;51.498;11.960;2023-07-09T08:23:29;27.70;85.00
29729;DHT22;20055;51.498;11.960;2023-07-09T08:26:00;28.10;83.40
29729;DHT22;20055;51.498;11.960;2023-07-09T08:28:28;28.10;82.90
29729;DHT22;20055;51.498;11.960;2023-07-09T08:30:55;28.10;82.20
29729;DHT22;20055;51.498;11.960;2023-07-09T08:33:23;28.40;79.50
29729;DHT22;20055;51.498;11.960;2023-07-09T08:35:50;28.60;78.80
29729;DHT22;20055;51.498;11.960;2023-07-09T08:38:17;28.50;79.10
29729;DHT22;20055;51.498;11.960;2023-07-09T08:40:59;28.60;78.00
29729;DHT22;20055;51.498;11.960;2023-07-09T08:48:46;29.20;75.90
29729;DHT22;20055;51.498;11.960;2023-07-09T08:53:52;29.40;74.70
29729;DHT22;20055;51.498;11.960;2023-07-09T08:56:20;29.20;74.20
29729;DHT22;20055;51.498;11.960;2023-07-09T08:58:49;29.30;74.00
29729;DHT22;20055;51.498;11.960;2023-07-09T09:01:22;29.50;73.50
29729;DHT22;20055;51.498;11.960;2023-07-09T09:03:52;29.80;71.20
29729;DHT22;20055;51.498;11.960;2023-07-09T09:06:29;29.90;69.60
29729;DHT22;20055;51.498;11.960;2023-07-09T09:09:15;29.90;70.50
29729;DHT22;20055;51.498;11.960;2023-07-09T09:11:50;29.80;70.90
29729;DHT22;20055;51.498;11.960;2023-07-09T09:14:26;29.90;71.20
29729;DHT22;20055;51.498;11.960;2023-07-09T09:16:54;30.20;68.30
29729;DHT22;20055;51.498;11.960;2023-07-09T09:22:21;30.10;66.70
29729;DHT22;20055;51.498;11.960;2023-07-09T09:27:36;30.40;65.90
29729;DHT22;20055;51.498;11.960;2023-07-09T09:30:08;30.60;65.30
29729;DHT22;20055;51.498;11.960;2023-07-09T09:33:07;30.40;65.80
29729;DHT22;20055;51.498;11.960;2023-07-09T09:35:36;30.60;64.80
29729;DHT22;20055;51.498;11.960;2023-07-09T09:38:11;30.70;63.80
29729;DHT22;20055;51.498;11.960;2023-07-09T09:40:38;30.80;61.60
29729;DHT22;20055;51.498;11.960;2023-07-09T09:43:14;30.60;62.20
29729;DHT22;20055;51.498;11.960;2023-07-09T09:45:42;30.70;59.90
29729;DHT22;20055;51.498;11.960;2023-07-09T09:48:18;30.30;58.70
29729;DHT22;20055;51.498;11.960;2023-07-09T09:50:46;30.30;59.70
29729;DHT22;20055;51.498;11.960;2023-07-09T09:53:24;30.40;60.40
29729;DHT22;20055;51.498;11.960;2023-07-09T09:55:55;30.60;59.90
29729;DHT22;20055;51.498;11.960;2023-07-09T09:58:27;30.90;59.30
29729;DHT22;20055;51.498;11.960;2023-07-09T10:00:56;31.10;58.80
29729;DHT22;20055;51.498;11.960;2023-07-09T10:03:33;31.10;58.20
29729;DHT22;20055;51.498;11.960;2023-07-09T10:06:12;31.20;58.80
29729;DHT22;20055;51.498;11.960;2023-07-09T10:11:58;31.40;57.60
29729;DHT22;20055;51.498;11.960;2023-07-09T10:17:38;31.50;56.10
29729;DHT22;20055;51.498;11.960;2023-07-09T10:26:27;31.40;56.60
29729;DHT22;20055;51.498;11.960;2023-07-09T10:29:35;31.40;52.90
29729;DHT22;20055;51.498;11.960;2023-07-09T10:32:22;31.30;52.30
29729;DHT22;20055;51.498;11.960;2023-07-09T10:34:58;31.70;53.80
29729;DHT22;20055;51.498;11.960;2023-07-09T10:37:43;31.70;50.90
29729;DHT22;20055;51.498;11.960;2023-07-09T10:40:14;31.70;52.70
29729;DHT22;20055;51.498;11.960;2023-07-09T10:42:45;31.70;51.10
29729;DHT22;20055;51.498;11.960;2023-07-09T10:45:28;31.90;51.50
29729;DHT22;20055;51.498;11.960;2023-07-09T10:48:16;32.30;52.00
29729;DHT22;20055;51.498;11.960;2023-07-09T10:50:52;31.70;52.50
29729;DHT22;20055;51.498;11.960;2023-07-09T10:53:43;31.80;51.20
29729;DHT22;20055;51.498;11.960;2023-07-09T10:56:16;31.90;51.30
29729;DHT22;20055;51.498;11.960;2023-07-09T10:58:57;31.50;51.00
29729;DHT22;20055;51.498;11.960;2023-07-09T11:01:31;31.80;51.10
29729;DHT22;20055;51.498;11.960;2023-07-09T11:04:05;31.80;53.40
29729;DHT22;20055;51.498;11.960;2023-07-09T11:06:45;31.70;53.80
29729;DHT22;20055;51.498;11.960;2023-07-09T11:09:30;31.70;50.80
29729;DHT22;20055;51.498;11.960;2023-07-09T11:12:01;32.10;51.00
29729;DHT22;20055;51.498;11.960;2023-07-09T11:14:40;32.20;51.10
29729;DHT22;20055;51.498;11.960;2023-07-09T11:17:15;32.10;51.40
29729;DHT22;20055;51.498;11.960;2023-07-09T11:19:48;32.10;51.90
29729;DHT22;20055;51.498;11.960;2023-07-09T11:22:20;31.70;53.20
29729;DHT22;20055;51.498;11.960;2023-07-09T11:24:50;30.90;54.90
29729;DHT22;20055;51.498;11.960;2023-07-09T11:27:23;30.30;54.80
29729;DHT22;20055;51.498;11.960;2023-07-09T11:30:01;30.30;54.00
29729;DHT22;20055;51.498;11.960;2023-07-09T11:32:29;31.00;52.40
29729;DHT22;20055;51.498;11.960;2023-07-09T11:35:07;30.90;55.10
29729;DHT22;20055;51.498;11.960;2023-07-09T11:37:44;30.60;54.70
29729;DHT22;20055;51.498;11.960;2023-07-09T11:40:12;31.10;53.50
29729;DHT22;20055;51.498;11.960;2023-07-09T11:42:57;31.00;54.00
29729;DHT22;20055;51.498;11.960;2023-07-09T11:45:27;31.20;51.80
29729;DHT22;20055;51.498;11.960;2023-07-09T11:48:16;31.60;51.00
29729;DHT22;20055;51.498;11.960;2023-07-09T11:50:48;32.10;50.50
29729;DHT22;20055;51.498;11.960;2023-07-09T11:53:52;32.30;50.00
29729;DHT22;20055;51.498;11.960;2023-07-09T11:56:23;32.50;49.60
29729;DHT22;20055;51.498;11.960;2023-07-09T11:58:52;32.70;49.60
29729;DHT22;20055;51.498;11.960;2023-07-09T12:01:27;32.70;49.30
29729;DHT22;20055;51.498;11.960;2023-07-09T12:03:57;32.50;50.80
29729;DHT22;20055;51.498;11.960;2023-07-09T12:06:27;32.50;51.00
29729;DHT22;20055;51.498;11.960;2023-07-09T12:08:54;32.50;50.40
29729;DHT22;20055;51.498;11.960;2023-07-09T12:11:24;32.70;51.70
29729;DHT22;20055;51.498;11.960;2023-07-09T12:13:51;32.70;50.90
29729;DHT22;20055;51.498;11.960;2023-07-09T12:16:39;32.80;50.50
29729;DHT22;20055;51.498;11.960;2023-07-09T12:19:06;31.80;52.80
29729;DHT22;20055;51.498;11.960;2023-07-09T12:21:36;32.00;50.90
29729;DHT22;20055;51.498;11.960;2023-07-09T12:24:20;32.50;50.80
29729;DHT22;20055;51.498;11.960;2023-07-09T12:26:59;33.00;49.30
29729;DHT22;20055;51.498;11.960;2023-07-09T12:29:27;33.30;48.30
29729;DHT22;20055;51.498;11.960;2023-07-09T12:31:56;33.20;50.10
29729;DHT22;20055;51.498;11.960;2023-07-09T12:34:24;33.20;48.70
29729;DHT22;20055;51.498;11.960;2023-07-09T12:36:53;33.40;47.90
29729;DHT22;20055;51.498;11.960;2023-07-09T12:39:30;33.10;50.20
29729;DHT22;20055;51.498;11.960;2023-07-09T12:42:00;33.30;47.90
29729;DHT22;20055;51.498;11.960;2023-07-09T12:44:38;33.20;48.90
29729;DHT22;20055;51.498;11.960;2023-07-09T12:47:05;33.10;47.70
29729;DHT22;20055;51.498;11.960;2023-07-09T12:49:40;33.20;47.90
29729;DHT22;20055;51.498;11.960;2023-07-09T12:52:18;32.80;48.10
29729;DHT22;20055;51.498;11.960;2023-07-09T12:55:27;32.50;48.70
29729;DHT22;20055;51.498;11.960;2023-07-09T12:57:58;32.50;48.70
29729;DHT22;20055;51.498;11.960;2023-07-09T13:00:30;33.00;47.20
29729;DHT22;20055;51.498;11.960;2023-07-09T13:02:58;33.20;47.10
29729;DHT22;20055;51.498;11.960;2023-07-09T13:05:26;33.50;47.70
29729;DHT22;20055;51.498;11.960;2023-07-09T13:07:58;33.30;47.70
29729;DHT22;20055;51.498;11.960;2023-07-09T13:10:41;33.00;49.50
29729;DHT22;20055;51.498;11.960;2023-07-09T13:13:13;31.50;51.90
29729;DHT22;20055;51.498;11.960;2023-07-09T13:15:42;31.20;52.40
29729;DHT22;20055;51.498;11.960;2023-07-09T13:18:13;30.50;54.10
29729;DHT22;20055;51.498;11.960;2023-07-09T13:20:45;30.40;54.80
29729;DHT22;20055;51.498;11.960;2023-07-09T13:23:15;30.70;52.00
29729;DHT22;20055;51.498;11.960;2023-07-09T13:25:42;31.30;51.90
29729;DHT22;20055;51.498;11.960;2023-07-09T13:28:24;31.70;50.90
29729;DHT22;20055;51.498;11.960;2023-07-09T13:30:59;31.70;50.30
29729;DHT22;20055;51.498;11.960;2023-07-09T13:33:27;32.20;48.80
29729;DHT22;20055;51.498;11.960;2023-07-09T13:35:53;32.70;47.60
29729;DHT22;20055;51.498;11.960;2023-07-09T13:38:22;33.00;48.60
29729;DHT22;20055;51.498;11.960;2023-07-09T13:40:52;32.80;47.20
29729;DHT22;20055;51.498;11.960;2023-07-09T13:43:39;31.80;49.80
29729;DHT22;20055;51.498;11.960;2023-07-09T13:46:07;32.00;48.60
29729;DHT22;20055;51.498;11.960;2023-07-09T13:48:36;32.70;48.70
29729;DHT22;20055;51.498;11.960;2023-07-09T13:51:20;32.90;48.50
29729;DHT22;20055;51.498;11.960;2023-07-09T13:53:48;32.70;49.80
29729;DHT22;20055;51.498;11.960;2023-07-09T13:56:15;32.60;49.20
29729;DHT22;20055;51.498;11.960;2023-07-09T13:58:41;32.30;50.10
29729;DHT22;20055;51.498;11.960;2023-07-09T14:01:16;32.70;48.20
29729;DHT22;20055;51.498;11.960;2023-07-09T14:03:43;33.10;47.80
29729;DHT22;20055;51.498;11.960;2023-07-09T14:06:15;33.00;49.30
29729;DHT22;20055;51.498;11.960;2023-07-09T14:08:41;33.20;47.70
29729;DHT22;20055;51.498;11.960;2023-07-09T14:11:12;33.10;48.70
29729;DHT22;20055;51.498;11.960;2023-07-09T14:13:39;32.70;49.10
29729;DHT22;20055;51.498;11.960;2023-07-09T14:16:08;33.00;47.40
29729;DHT22;20055;51.498;11.960;2023-07-09T14:18:35;32.40;48.70
29729;DHT22;20055;51.498;11.960;2023-07-09T14:21:13;32.70;48.00
29729;DHT22;20055;51.498;11.960;2023-07-09T14:23:41;32.70;47.90
29729;DHT22;20055;51.498;11.960;2023-07-09T14:26:09;32.70;47.60
29729;DHT22;20055;51.498;11.960;2023-07-09T14:28:36;32.90;47.70
29729;DHT22;20055;51.498;11.960;2023-07-09T14:31:17;33.00;46.20
29729;DHT22;20055;51.498;11.960;2023-07-09T14:33:45;33.40;46.60
29729;DHT22;20055;51.498;11.960;2023-07-09T14:36:11;33.10;46.50
29729;DHT22;20055;51.498;11.960;2023-07-09T14:38:37;33.10;46.80
29729;DHT22;20055;51.498;11.960;2023-07-09T14:41:21;32.40;49.20
29729;DHT22;20055;51.498;11.960;2023-07-09T14:43:48;32.30;49.60
29729;DHT22;20055;51.498;11.960;2023-07-09T14:46:15;32.20;49.10
29729;DHT22;20055;51.498;11.960;2023-07-09T14:48:41;32.10;49.10
29729;DHT22;20055;51.498;11.960;2023-07-09T14:51:15;32.40;48.10
29729;DHT22;20055;51.498;11.960;2023-07-09T14:53:42;32.50;47.00
29729;DHT22;20055;51.498;11.960;2023-07-09T14:56:11;32.70;47.30
29729;DHT22;20055;51.498;11.960;2023-07-09T14:58:38;32.60;47.10
29729;DHT22;20055;51.498;11.960;2023-07-09T15:01:05;32.70;46.70
29729;DHT22;20055;51.498;11.960;2023-07-09T15:03:31;33.00;48.10
29729;DHT22;20055;51.498;11.960;2023-07-09T15:05:57;31.50;50.70
29729;DHT22;20055;51.498;11.960;2023-07-09T15:08:24;30.60;52.30
29729;DHT22;20055;51.498;11.960;2023-07-09T15:10:53;31.50;49.40
29729;DHT22;20055;51.498;11.960;2023-07-09T15:13:21;31.90;48.40
29729;DHT22;20055;51.498;11.960;2023-07-09T15:15:50;32.10;48.00
29729;DHT22;20055;51.498;11.960;2023-07-09T15:18:16;32.00;49.50
29729;DHT22;20055;51.498;11.960;2023-07-09T15:20:48;32.00;48.50
29729;DHT22;20055;51.498;11.960;2023-07-09T15:23:15;31.80;49.30
29729;DHT22;20055;51.498;11.960;2023-07-09T15:25:43;32.20;48.20
29729;DHT22;20055;51.498;11.960;2023-07-09T15:28:11;32.60;46.50
29729;DHT22;20055;51.498;11.960;2023-07-09T15:30:37;32.80;46.20
29729;DHT22;20055;51.498;11.960;2023-07-09T15:33:05;33.10;46.90
29729;DHT22;20055;51.498;11.960;2023-07-09T15:35:34;33.10;47.50
29729;DHT22;20055;51.498;11.960;2023-07-09T15:40:42;32.90;46.70
29729;DHT22;20055;51.498;11.960;2023-07-09T15:43:09;33.40;45.90
29729;DHT22;20055;51.498;11.960;2023-07-09T15:45:44;33.80;46.40
29729;DHT22;20055;51.498;11.960;2023-07-09T15:48:33;33.50;45.80
29729;DHT22;20055;51.498;11.960;2023-07-09T15:51:02;33.70;45.30
29729;DHT22;20055;51.498;11.960;2023-07-09T15:53:29;33.80;45.60
29729;DHT22;20055;51.498;11.960;2023-07-09T15:56:25;34.00;45.00
29729;DHT22;20055;51.498;11.960;2023-07-09T15:58:54;34.30;44.00
29729;DHT22;20055;51.498;11.960;2023-07-09T16:01:21;34.00;44.70
29729;DHT22;20055;51.498;11.960;2023-07-09T16:03:49;34.30;43.80
29729;DHT22;20055;51.498;11.960;2023-07-09T16:06:16;34.50;43.10